Aeroboteco Virtual Airlines! Uma nuvem a frente.



 INFORMAÇÕES METEOROLÓGICAS
METAR FOR LEGR
ADDS - METARS form results

(1652 UTC 21 March 2019)
Data provider http://aviationweather.gov/metar/data/
 
METAR text: LEGR 211630Z 20012KT 170V230 9999 SCT060 15/01 Q1022
Conditions at: LEGR (GRANADA AIRPORT , ES) observed 1630 UTC 21 March 2019
Temperature: 15.0°C (59°F)
Dewpoint: 1.0°C (34°F) [RH = 39%]
Pressure (altimeter): 30.18 inches Hg (1022.0 mb)
Winds: from the SSW (200 degrees) at 14 MPH (12 knots; 6.2 m/s)
Visibility: 6 or more miles (10+ km)
Ceiling: at least 12,000 feet AGL
Clouds: scattered clouds at 6000 feet AGL
Weather: no significant weather observed at this time

METAR text: LEGR 211600Z 19012KT 160V220 9999 FEW060 16/01 Q1022
Conditions at: LEGR (GRANADA AIRPORT , ES) observed 1600 UTC 21 March 2019
Temperature: 16.0°C (61°F)
Dewpoint: 1.0°C (34°F) [RH = 36%]
Pressure (altimeter): 30.18 inches Hg (1022.0 mb)
Winds: from the S (190 degrees) at 14 MPH (12 knots; 6.2 m/s)
Visibility: 6 or more miles (10+ km)
Ceiling: at least 12,000 feet AGL
Clouds: few clouds at 6000 feet AGL
Weather: no significant weather observed at this time

Forecast for: LEGR (GRANADA AIRPORT , ES)
Text: TAF LEGR 211400Z 2115/2215 18009KT 9999 SCT050 TX16/2115Z TN01/2206Z
Forecast period: 1500 UTC 21 March 2019 to 1500 UTC 22 March 2019
Forecast type: FROM: standard forecast or significant change
Winds: from the S (180 degrees) at 10 MPH (9 knots; 4.6 m/s)
Visibility: 6 or more miles 10+ km)
Ceiling: at least 12,000 feet AGL
Clouds: scattered clouds at 5000 feet AGL
Weather: no significant weather forecast for this period

 MAPA DO AEROPORTO

 INFORMAÇÕES DA PISTA
Pista 09 Tamanho da pista 9514 ft Largura da pista 148 ft
Elevação da pista 1842 ft Ranhura da pista 0 ft Proa da pista 90
Pista 27 Tamanho da pista 9514 ft Largura da pista 148 ft
Elevação da pista 1860 ft Ranhura da pista 0 ft Proa da pista 270

 FREQUÊNCIAS DO AEROPORTO
Tipo GND Nome GND Frequência 121.7 MHZ
Tipo TWR Nome TWR Frequência 118.85 MHZ

 AUXÍLIOS DE NAVEGAÇÃO PRÓXIMOS AO AEROPORTO
Tipo VOR-DME Nome Granada Frequência 113400 KHZ